Time;durP1;ratioP1;P1;durP2;ratioP2;P2;SDS_P1;SDS_P2;PMS_P1;PMS_P2;Temp;Humidity;BMP_temperature;BMP_pressure;BME280_temperature;BME280_humidity;BME280_pressure;Samples;Min_cycle;Max_cycle;Signal;HPM_P1;HPM_P2
2021/12/31 00:01:28;;;;;;;;;43.33;32.67;;;;;;;;5162302;27;11653;-78
2021/12/31 00:03:55;;;;;;;;;37.33;33.00;;;;;;;;5163235;27;13228;-79
2021/12/31 00:06:20;;;;;;;;;35.33;29.00;;;;;;;;5163770;27;13466;-79
2021/12/31 00:08:46;;;;;;;;;40.00;32.33;;;;;;;;5163348;27;9525;-79
2021/12/31 00:11:11;;;;;;;;;42.33;35.00;;;;;;;;5163794;27;13829;-79
2021/12/31 00:13:36;;;;;;;;;31.00;29.67;;;;;;;;5163314;27;11602;-79
2021/12/31 00:16:02;;;;;;;;;26.67;21.00;;;;;;;;5163186;27;13350;-79
2021/12/31 00:18:27;;;;;;;;;30.67;29.00;;;;;;;;5162972;27;13279;-79
2021/12/31 00:20:52;;;;;;;;;27.00;21.33;;;;;;;;5163041;27;10887;-78
2021/12/31 00:23:23;;;;;;;;;28.00;25.67;;;;;;;;5162426;27;13452;-79
2021/12/31 00:25:48;;;;;;;;;26.33;24.67;;;;;;;;5162127;27;11921;-79
2021/12/31 00:28:13;;;;;;;;;23.67;23.67;;;;;;;;5162754;27;10979;-79
2021/12/31 00:30:39;;;;;;;;;35.33;26.00;;;;;;;;5163551;27;10519;-79
2021/12/31 00:33:06;;;;;;;;;26.00;21.00;;;;;;;;5163533;27;13475;-79
2021/12/31 00:35:32;;;;;;;;;33.33;24.67;;;;;;;;5162940;27;13413;-77
2021/12/31 00:37:58;;;;;;;;;27.00;24.67;;;;;;;;5163044;27;14582;-79
2021/12/31 00:40:23;;;;;;;;;29.00;27.67;;;;;;;;5162602;27;10491;-79
2021/12/31 00:42:49;;;;;;;;;32.33;27.67;;;;;;;;5163103;27;9014;-79
2021/12/31 00:45:15;;;;;;;;;29.33;23.67;;;;;;;;5163771;27;8792;-80
2021/12/31 00:47:41;;;;;;;;;28.00;27.00;;;;;;;;5163318;27;10937;-81
2021/12/31 00:50:06;;;;;;;;;23.33;21.33;;;;;;;;5163278;27;11451;-79
2021/12/31 00:52:32;;;;;;;;;29.00;26.00;;;;;;;;5162795;27;11430;-79
2021/12/31 00:54:57;;;;;;;;;36.33;28.67;;;;;;;;5163001;27;11572;-78
2021/12/31 00:57:22;;;;;;;;;30.33;24.67;;;;;;;;5162654;27;13212;-78
2021/12/31 00:59:51;;;;;;;;;18.00;18.00;;;;;;;;5163050;27;9318;-78
2021/12/31 01:02:18;;;;;;;;;27.00;25.00;;;;;;;;5161965;27;14748;-78
2021/12/31 01:04:43;;;;;;;;;21.00;14.00;;;;;;;;5163365;27;10536;-77
2021/12/31 01:07:09;;;;;;;;;25.67;24.67;;;;;;;;5163124;27;9816;-77
2021/12/31 01:09:35;;;;;;;;;33.67;26.33;;;;;;;;5162721;27;12243;-77
2021/12/31 01:12:01;;;;;;;;;25.67;25.00;;;;;;;;5162006;27;13840;-77
2021/12/31 01:14:34;;;;;;;;;27.67;23.33;;;;;;;;5162620;27;13311;-77
2021/12/31 01:17:03;;;;;;;;;27.67;22.33;;;;;;;;5162884;27;12298;-78
2021/12/31 01:19:48;;;;;;;;;24.67;23.00;;;;;;;;5163376;27;8780;-78
2021/12/31 01:22:18;;;;;;;;;27.33;26.33;;;;;;;;5163149;27;11638;-78
2021/12/31 01:24:43;;;;;;;;;37.00;28.00;;;;;;;;5163127;27;11541;-78
2021/12/31 01:27:09;;;;;;;;;35.33;26.67;;;;;;;;5162589;27;13299;-77
2021/12/31 01:29:35;;;;;;;;;33.33;25.00;;;;;;;;5163097;27;11397;-78
2021/12/31 01:32:00;;;;;;;;;34.00;27.00;;;;;;;;5164142;27;11986;-78
2021/12/31 01:34:25;;;;;;;;;33.33;30.00;;;;;;;;5147668;27;10778;-77
2021/12/31 01:36:51;;;;;;;;;38.67;30.67;;;;;;;;5164633;27;11465;-77
2021/12/31 01:39:17;;;;;;;;;28.67;25.33;;;;;;;;5161981;27;11754;-78
2021/12/31 01:41:42;;;;;;;;;32.00;26.67;;;;;;;;5162351;27;13279;-78
2021/12/31 01:44:08;;;;;;;;;40.33;31.67;;;;;;;;5162711;27;13551;-78
2021/12/31 01:46:36;;;;;;;;;35.33;34.00;;;;;;;;5162444;27;12461;-78
2021/12/31 01:49:03;;;;;;;;;37.00;30.67;;;;;;;;5142721;27;14126;-78
2021/12/31 01:51:29;;;;;;;;;34.33;30.33;;;;;;;;5161659;27;12983;-78
2021/12/31 01:53:55;;;;;;;;;37.00;32.67;;;;;;;;5142901;27;13546;-80
2021/12/31 01:56:21;;;;;;;;;30.67;28.33;;;;;;;;5161995;27;11616;-81
2021/12/31 01:58:49;;;;;;;;;30.33;28.00;;;;;;;;5161688;27;12406;-79
2021/12/31 02:01:14;;;;;;;;;29.67;27.67;;;;;;;;5161621;27;10230;-80
2021/12/31 02:03:40;;;;;;;;;33.33;31.67;;;;;;;;5161913;27;13369;-80
2021/12/31 02:06:05;;;;;;;;;34.00;27.00;;;;;;;;5161876;27;12509;-80
2021/12/31 02:08:33;;;;;;;;;31.00;30.33;;;;;;;;5161443;27;12201;-80
2021/12/31 02:10:59;;;;;;;;;36.33;25.67;;;;;;;;5161966;27;12272;-80
2021/12/31 02:13:25;;;;;;;;;28.67;28.67;;;;;;;;5143018;27;13064;-80
2021/12/31 02:15:51;;;;;;;;;21.00;20.67;;;;;;;;5161810;27;12333;-81
2021/12/31 02:18:16;;;;;;;;;33.67;27.67;;;;;;;;5161347;27;10955;-80
2021/12/31 02:20:45;;;;;;;;;28.00;27.00;;;;;;;;5142742;27;12697;-80
2021/12/31 02:23:38;;;;;;;;;23.33;18.67;;;;;;;;5161547;27;13584;-79
2021/12/31 02:26:03;;;;;;;;;26.67;25.67;;;;;;;;5165412;27;12538;-80
2021/12/31 02:28:29;;;;;;;;;33.00;29.67;;;;;;;;5165276;27;11913;-81
2021/12/31 02:31:00;;;;;;;;;27.67;23.67;;;;;;;;5146277;27;12436;-79
2021/12/31 02:33:25;;;;;;;;;24.67;23.00;;;;;;;;5164712;27;12878;-80
2021/12/31 02:35:50;;;;;;;;;32.33;25.33;;;;;;;;5165104;27;11376;-80
2021/12/31 02:38:16;;;;;;;;;32.67;26.33;;;;;;;;5164728;27;13694;-79
2021/12/31 02:40:44;;;;;;;;;28.67;27.00;;;;;;;;5164579;27;9677;-79
2021/12/31 02:43:09;;;;;;;;;42.67;30.00;;;;;;;;5164969;27;13464;-80
2021/12/31 02:45:37;;;;;;;;;29.00;27.00;;;;;;;;5165205;27;10823;-81
2021/12/31 02:48:04;;;;;;;;;31.33;27.33;;;;;;;;5165089;27;13955;-81
2021/12/31 02:50:33;;;;;;;;;27.00;24.67;;;;;;;;5164600;27;14409;-81
2021/12/31 02:52:59;;;;;;;;;30.67;23.67;;;;;;;;5164583;27;13313;-80
2021/12/31 02:55:25;;;;;;;;;31.00;26.33;;;;;;;;5164593;27;13598;-80
2021/12/31 02:57:50;;;;;;;;;26.67;21.67;;;;;;;;5164194;27;11567;-78
2021/12/31 03:00:16;;;;;;;;;27.00;24.67;;;;;;;;5163994;27;14413;-75
2021/12/31 03:02:42;;;;;;;;;27.67;24.00;;;;;;;;5163631;27;11534;-76
2021/12/31 03:05:08;;;;;;;;;26.33;24.67;;;;;;;;5164736;27;8902;-81
2021/12/31 03:07:34;;;;;;;;;29.00;24.00;;;;;;;;5164802;27;11461;-79
2021/12/31 03:10:00;;;;;;;;;28.33;23.00;;;;;;;;5164189;27;11397;-77
2021/12/31 03:12:25;;;;;;;;;26.67;24.67;;;;;;;;5164096;27;10588;-82
2021/12/31 03:14:51;;;;;;;;;25.33;18.67;;;;;;;;5144957;27;11746;-80
2021/12/31 03:17:18;;;;;;;;;27.67;21.00;;;;;;;;5163598;27;11840;-82
2021/12/31 03:19:44;;;;;;;;;20.00;19.33;;;;;;;;5165049;27;13525;-82
2021/12/31 03:22:09;;;;;;;;;8.00;4.33;;;;;;;;5164529;27;12198;-84
2021/12/31 03:24:35;;;;;;;;;27.67;24.67;;;;;;;;5164016;27;22622;-83
2021/12/31 03:27:00;;;;;;;;;30.33;24.33;;;;;;;;5163402;27;23777;-84
2021/12/31 03:29:25;;;;;;;;;26.67;24.00;;;;;;;;5144742;27;13592;-85
2021/12/31 03:31:51;;;;;;;;;33.00;27.33;;;;;;;;5163788;27;13275;-84
2021/12/31 03:34:16;;;;;;;;;33.33;26.00;;;;;;;;5163572;27;13461;-84
2021/12/31 03:36:42;;;;;;;;;26.67;24.00;;;;;;;;5144452;27;14508;-85
2021/12/31 03:39:08;;;;;;;;;19.67;16.00;;;;;;;;5164510;27;13326;-86
2021/12/31 03:41:33;;;;;;;;;25.67;20.33;;;;;;;;5164473;27;10610;-85
2021/12/31 03:43:59;;;;;;;;;31.33;25.33;;;;;;;;5164246;27;14317;-85
2021/12/31 03:46:24;;;;;;;;;20.67;17.00;;;;;;;;5164496;27;12462;-85
2021/12/31 03:48:49;;;;;;;;;24.00;23.00;;;;;;;;5163779;27;13206;-85
2021/12/31 03:51:15;;;;;;;;;22.33;20.67;;;;;;;;5163902;27;11394;-84
2021/12/31 03:53:40;;;;;;;;;27.00;22.67;;;;;;;;5163812;27;11487;-85
2021/12/31 03:56:05;;;;;;;;;18.67;15.00;;;;;;;;5163854;27;10355;-84
2021/12/31 03:58:31;;;;;;;;;21.67;13.33;;;;;;;;5163198;27;13448;-84
2021/12/31 04:00:56;;;;;;;;;24.00;19.00;;;;;;;;5163910;27;13228;-84
2021/12/31 04:03:21;;;;;;;;;19.00;17.67;;;;;;;;5163173;27;12558;-84
2021/12/31 04:05:47;;;;;;;;;21.00;18.33;;;;;;;;5163729;27;14798;-85
2021/12/31 04:08:13;;;;;;;;;17.00;15.33;;;;;;;;5164352;27;13210;-85
2021/12/31 04:10:38;;;;;;;;;16.00;14.67;;;;;;;;5164384;27;10351;-86
2021/12/31 04:13:03;;;;;;;;;20.00;16.33;;;;;;;;5164791;27;11367;-84
2021/12/31 04:15:29;;;;;;;;;18.33;16.00;;;;;;;;5164047;27;13228;-84
2021/12/31 04:17:54;;;;;;;;;20.00;17.33;;;;;;;;5164002;27;13210;-85
2021/12/31 04:20:32;;;;;;;;;19.67;14.00;;;;;;;;5164035;27;13765;-86
2021/12/31 04:22:58;;;;;;;;;19.33;16.33;;;;;;;;5163317;27;13490;-86
2021/12/31 04:25:23;;;;;;;;;20.00;19.00;;;;;;;;5163675;27;10610;-86
2021/12/31 04:27:49;;;;;;;;;14.33;12.33;;;;;;;;5164169;27;13222;-85
2021/12/31 04:30:14;;;;;;;;;16.67;14.00;;;;;;;;5164486;27;13291;-85
2021/12/31 04:32:40;;;;;;;;;19.33;16.33;;;;;;;;5164021;27;11523;-86
2021/12/31 04:35:06;;;;;;;;;20.33;16.00;;;;;;;;5164480;27;12580;-86
2021/12/31 04:37:31;;;;;;;;;15.33;14.67;;;;;;;;5163774;27;14223;-87
2021/12/31 04:39:57;;;;;;;;;19.00;15.33;;;;;;;;5163327;27;13375;-87
2021/12/31 04:42:22;;;;;;;;;16.33;14.00;;;;;;;;5163349;27;11493;-83
2021/12/31 04:44:47;;;;;;;;;14.67;13.00;;;;;;;;5163295;27;11427;-84
2021/12/31 04:47:12;;;;;;;;;19.33;16.67;;;;;;;;5163182;27;10650;-85
2021/12/31 04:49:38;;;;;;;;;17.67;14.67;;;;;;;;5144758;27;13368;-83
2021/12/31 04:52:03;;;;;;;;;17.00;14.67;;;;;;;;5164037;27;10382;-83
2021/12/31 04:54:28;;;;;;;;;16.00;12.33;;;;;;;;5163862;27;8791;-84
2021/12/31 04:56:56;;;;;;;;;20.67;16.33;;;;;;;;5164076;27;11537;-85
2021/12/31 04:59:21;;;;;;;;;17.00;12.33;;;;;;;;5162796;27;12444;-85
2021/12/31 05:01:48;;;;;;;;;19.33;16.00;;;;;;;;5162361;27;12270;-86
2021/12/31 05:04:14;;;;;;;;;19.33;16.67;;;;;;;;5163669;27;11635;-85
2021/12/31 05:06:40;;;;;;;;;16.00;16.00;;;;;;;;5162707;27;8831;-86
2021/12/31 05:09:05;;;;;;;;;16.00;14.67;;;;;;;;5163616;27;11887;-83
2021/12/31 05:11:31;;;;;;;;;15.33;11.67;;;;;;;;5170818;27;8877;-85
2021/12/31 05:13:56;;;;;;;;;17.00;16.00;;;;;;;;5176591;27;10696;-85
2021/12/31 05:16:21;;;;;;;;;17.67;14.00;;;;;;;;5165129;27;11347;-84
2021/12/31 05:18:46;;;;;;;;;16.00;11.00;;;;;;;;5163036;27;9520;-86
2021/12/31 05:21:12;;;;;;;;;17.00;14.67;;;;;;;;5163719;27;10951;-89
2021/12/31 05:23:37;;;;;;;;;18.33;18.33;;;;;;;;5163222;27;11399;-81
2021/12/31 05:26:02;;;;;;;;;16.67;16.67;;;;;;;;5163132;27;11901;-81
2021/12/31 05:28:28;;;;;;;;;18.33;17.33;;;;;;;;5162596;27;11530;-83
2021/12/31 05:30:53;;;;;;;;;20.00;17.00;;;;;;;;5162861;27;11950;-85
2021/12/31 05:33:18;;;;;;;;;17.00;17.00;;;;;;;;5162416;27;13367;-83
2021/12/31 05:35:44;;;;;;;;;16.33;16.33;;;;;;;;5163088;27;8779;-86
2021/12/31 05:38:09;;;;;;;;;23.33;20.33;;;;;;;;5162310;27;11368;-82
2021/12/31 05:40:34;;;;;;;;;18.67;16.00;;;;;;;;5162316;27;10482;-82
2021/12/31 05:43:00;;;;;;;;;21.00;17.67;;;;;;;;5162163;27;13211;-82
2021/12/31 05:45:25;;;;;;;;;21.67;20.00;;;;;;;;5161660;27;13732;-82
2021/12/31 05:47:51;;;;;;;;;19.67;17.00;;;;;;;;5161927;27;12736;-83
2021/12/31 05:50:27;;;;;;;;;23.33;20.00;;;;;;;;5162487;27;10565;-83
2021/12/31 05:52:54;;;;;;;;;24.33;20.33;;;;;;;;5161687;27;13541;-84
2021/12/31 05:55:19;;;;;;;;;20.00;18.67;;;;;;;;5161592;27;12812;-86
2021/12/31 05:57:45;;;;;;;;;19.33;16.67;;;;;;;;5161490;27;12322;-85
2021/12/31 06:00:10;;;;;;;;;17.33;16.33;;;;;;;;5163521;27;12307;-88
2021/12/31 06:02:36;;;;;;;;;22.67;16.67;;;;;;;;5143131;27;13868;-88
2021/12/31 06:05:01;;;;;;;;;19.00;16.33;;;;;;;;5162162;27;14644;-84
2021/12/31 06:07:26;;;;;;;;;17.00;15.33;;;;;;;;5162961;27;14119;-87
2021/12/31 06:09:51;;;;;;;;;18.33;17.67;;;;;;;;5163211;27;8815;-86
2021/12/31 06:12:17;;;;;;;;;18.33;14.67;;;;;;;;5161718;27;11430;-81
2021/12/31 06:14:42;;;;;;;;;25.00;16.00;;;;;;;;5162060;27;8792;-78
2021/12/31 06:17:08;;;;;;;;;22.00;18.00;;;;;;;;5161609;27;13731;-79
2021/12/31 06:19:34;;;;;;;;;22.00;19.33;;;;;;;;5161872;27;9689;-82
2021/12/31 06:22:00;;;;;;;;;21.00;18.33;;;;;;;;5161428;27;8772;-81
2021/12/31 06:24:25;;;;;;;;;23.00;17.00;;;;;;;;5142214;27;10520;-80
2021/12/31 06:26:50;;;;;;;;;19.33;17.67;;;;;;;;5161725;27;11391;-81
2021/12/31 06:29:15;;;;;;;;;20.67;17.33;;;;;;;;5177713;27;13423;-81
2021/12/31 06:31:41;;;;;;;;;19.67;17.00;;;;;;;;5171515;27;14809;-81
2021/12/31 06:34:06;;;;;;;;;20.00;18.67;;;;;;;;5182260;27;13210;-84
2021/12/31 06:36:31;;;;;;;;;20.67;18.33;;;;;;;;5162881;27;15266;-84
2021/12/31 06:38:58;;;;;;;;;19.33;19.33;;;;;;;;5182782;27;8789;-83
2021/12/31 06:41:23;;;;;;;;;16.67;16.67;;;;;;;;5182207;27;12773;-81
2021/12/31 06:43:48;;;;;;;;;21.67;20.00;;;;;;;;5182194;27;11668;-81
2021/12/31 06:46:14;;;;;;;;;21.00;19.33;;;;;;;;5181638;27;13555;-84
2021/12/31 06:48:39;;;;;;;;;17.67;17.00;;;;;;;;5181771;27;12205;-81
2021/12/31 06:51:04;;;;;;;;;17.00;14.67;;;;;;;;5163439;27;13506;-81
2021/12/31 06:53:30;;;;;;;;;18.00;16.00;;;;;;;;5180584;27;10601;-82
2021/12/31 06:55:55;;;;;;;;;22.33;21.00;;;;;;;;5180794;27;12948;-84
2021/12/31 06:58:20;;;;;;;;;20.67;17.33;;;;;;;;5182669;27;12236;-79
2021/12/31 07:00:45;;;;;;;;;25.33;19.33;;;;;;;;5181768;27;12381;-83
2021/12/31 07:03:12;;;;;;;;;21.67;18.00;;;;;;;;5181637;27;10328;-83
2021/12/31 07:05:39;;;;;;;;;25.00;19.33;;;;;;;;5182947;27;11667;-89
2021/12/31 07:08:05;;;;;;;;;18.00;17.67;;;;;;;;5177359;27;11656;-85
2021/12/31 07:10:30;;;;;;;;;17.33;16.67;;;;;;;;5183887;27;14064;-85
2021/12/31 07:13:00;;;;;;;;;18.00;17.67;;;;;;;;5165996;27;12628;-84
2021/12/31 07:15:25;;;;;;;;;21.33;20.00;;;;;;;;5169331;27;12781;-88
2021/12/31 07:17:51;;;;;;;;;17.00;17.00;;;;;;;;5165992;27;16127;-83
2021/12/31 07:20:17;;;;;;;;;23.33;22.00;;;;;;;;5184685;27;12198;-83
2021/12/31 07:22:42;;;;;;;;;20.33;17.00;;;;;;;;5184706;27;12465;-83
2021/12/31 07:25:07;;;;;;;;;20.00;16.67;;;;;;;;5185992;27;9525;-86
2021/12/31 07:27:33;;;;;;;;;20.67;20.67;;;;;;;;5184948;27;10336;-83
2021/12/31 07:29:58;;;;;;;;;19.33;17.33;;;;;;;;5183518;27;11733;-78
2021/12/31 07:32:23;;;;;;;;;24.33;20.33;;;;;;;;5184571;27;13941;-79
2021/12/31 07:34:49;;;;;;;;;17.00;17.00;;;;;;;;5164787;27;12724;-80
2021/12/31 07:37:14;;;;;;;;;22.00;21.00;;;;;;;;5185169;27;13193;-78
2021/12/31 07:39:46;;;;;;;;;20.67;18.00;;;;;;;;5185016;27;10333;-77
2021/12/31 07:42:11;;;;;;;;;24.33;21.00;;;;;;;;5185334;27;11467;-79
2021/12/31 07:44:37;;;;;;;;;28.00;20.00;;;;;;;;5184642;27;11358;-79
2021/12/31 07:47:02;;;;;;;;;23.33;23.00;;;;;;;;5183916;27;10360;-78
2021/12/31 07:49:27;;;;;;;;;23.00;22.00;;;;;;;;5183536;27;10701;-78
2021/12/31 07:51:53;;;;;;;;;20.00;17.33;;;;;;;;5183276;27;9812;-75
2021/12/31 07:54:18;;;;;;;;;22.00;20.00;;;;;;;;5183096;27;12437;-77
2021/12/31 07:56:43;;;;;;;;;24.67;20.33;;;;;;;;5164049;27;12397;-76
2021/12/31 07:59:09;;;;;;;;;18.33;17.67;;;;;;;;5183267;27;11915;-78
2021/12/31 08:01:34;;;;;;;;;26.00;21.67;;;;;;;;5183193;27;13463;-75
2021/12/31 08:03:59;;;;;;;;;19.33;16.33;;;;;;;;5164870;27;14442;-77
2021/12/31 08:06:24;;;;;;;;;21.67;19.67;;;;;;;;5184190;27;14004;-77
2021/12/31 08:08:50;;;;;;;;;23.00;18.00;;;;;;;;5184466;27;13201;-77
2021/12/31 08:11:15;;;;;;;;;23.00;19.67;;;;;;;;5184192;27;11360;-77
2021/12/31 08:13:40;;;;;;;;;22.00;18.33;;;;;;;;5184996;27;8884;-74
2021/12/31 08:16:05;;;;;;;;;21.67;21.67;;;;;;;;5183652;27;11430;-84
2021/12/31 08:18:31;;;;;;;;;22.00;18.33;;;;;;;;5184501;27;12257;-81
2021/12/31 08:20:56;;;;;;;;;21.67;17.67;;;;;;;;5184703;27;12462;-83
2021/12/31 08:23:21;;;;;;;;;24.00;24.00;;;;;;;;5165012;27;13938;-79
2021/12/31 08:25:47;;;;;;;;;22.33;17.00;;;;;;;;5165186;27;15422;-81
2021/12/31 08:28:12;;;;;;;;;24.00;22.00;;;;;;;;5183879;27;11970;-79
2021/12/31 08:30:38;;;;;;;;;25.33;23.67;;;;;;;;5183329;27;11742;-74
2021/12/31 08:33:03;;;;;;;;;19.33;17.00;;;;;;;;5181600;27;11930;-75
2021/12/31 08:35:29;;;;;;;;;23.67;23.33;;;;;;;;5162827;27;13770;-74
2021/12/31 08:37:54;;;;;;;;;21.67;19.33;;;;;;;;5181777;27;13236;-75
2021/12/31 08:40:20;;;;;;;;;25.67;23.33;;;;;;;;5176245;27;9570;-75
2021/12/31 08:42:45;;;;;;;;;21.67;20.33;;;;;;;;5157529;27;12682;-76
2021/12/31 08:45:11;;;;;;;;;25.67;20.67;;;;;;;;5180724;27;8802;-77
2021/12/31 08:47:36;;;;;;;;;26.67;22.33;;;;;;;;5181678;27;11846;-76
2021/12/31 08:50:02;;;;;;;;;18.67;15.67;;;;;;;;5161786;27;13821;-73
2021/12/31 08:52:27;;;;;;;;;23.00;21.00;;;;;;;;5180905;27;13202;-72
2021/12/31 10:30:39;;;;;;;;;30.33;24.33;;;;;;;;5124083;27;2387591;-80
2021/12/31 10:33:04;;;;;;;;;31.33;27.33;;;;;;;;5159305;27;24445;-75
2021/12/31 10:35:37;;;;;;;;;26.67;23.00;;;;;;;;5179704;27;8796;-70
2021/12/31 10:38:06;;;;;;;;;31.33;28.00;;;;;;;;5178817;27;13494;-72
2021/12/31 10:40:32;;;;;;;;;27.00;27.00;;;;;;;;5160842;27;12735;-71
2021/12/31 10:43:27;;;;;;;;;38.33;35.33;;;;;;;;5199901;27;12597;-71
2021/12/31 10:45:56;;;;;;;;;45.33;36.00;;;;;;;;5180823;27;13475;-74
2021/12/31 10:48:36;;;;;;;;;50.33;35.33;;;;;;;;5199523;27;14695;-74
2021/12/31 10:51:01;;;;;;;;;38.33;34.67;;;;;;;;5199884;27;13419;-73
2021/12/31 10:53:33;;;;;;;;;37.33;34.67;;;;;;;;5180121;27;15477;-72
2021/12/31 10:56:11;;;;;;;;;36.00;35.00;;;;;;;;5199227;27;8782;-72
2021/12/31 10:58:38;;;;;;;;;39.00;36.67;;;;;;;;5199195;27;11611;-73
2021/12/31 11:01:05;;;;;;;;;41.33;35.00;;;;;;;;5180244;27;12003;-73
2021/12/31 11:03:31;;;;;;;;;42.00;36.00;;;;;;;;5182507;27;13368;-73
2021/12/31 11:05:56;;;;;;;;;42.33;35.67;;;;;;;;5185904;27;10375;-73
2021/12/31 11:08:22;;;;;;;;;39.00;33.67;;;;;;;;5199746;27;11450;-73
2021/12/31 11:10:50;;;;;;;;;36.33;31.67;;;;;;;;5199399;27;12303;-72
2021/12/31 11:13:20;;;;;;;;;42.00;36.33;;;;;;;;5200050;27;11737;-72
2021/12/31 11:15:46;;;;;;;;;30.00;27.00;;;;;;;;5199120;27;13317;-74
2021/12/31 11:18:13;;;;;;;;;45.00;38.67;;;;;;;;5200361;27;13316;-76
2021/12/31 11:20:39;;;;;;;;;40.00;37.33;;;;;;;;5200469;27;14469;-75
2021/12/31 11:23:04;;;;;;;;;42.33;37.33;;;;;;;;5180605;27;13945;-74
2021/12/31 11:25:29;;;;;;;;;51.33;42.00;;;;;;;;5179906;27;9972;-75
2021/12/31 11:27:56;;;;;;;;;45.33;39.00;;;;;;;;5198842;27;13588;-73
2021/12/31 11:30:27;;;;;;;;;48.33;39.67;;;;;;;;5198632;27;10460;-73
2021/12/31 11:32:56;;;;;;;;;36.33;33.33;;;;;;;;5199604;27;12769;-73
2021/12/31 11:35:29;;;;;;;;;44.00;39.33;;;;;;;;5198841;27;13562;-73
2021/12/31 11:37:54;;;;;;;;;43.33;37.67;;;;;;;;5199342;27;12972;-73
2021/12/31 11:40:25;;;;;;;;;41.67;35.67;;;;;;;;5194995;27;11391;-71
2021/12/31 11:43:09;;;;;;;;;49.33;40.00;;;;;;;;5184074;27;10782;-73
2021/12/31 11:45:35;;;;;;;;;46.67;40.33;;;;;;;;5182333;27;12864;-72
2021/12/31 11:48:00;;;;;;;;;48.67;43.00;;;;;;;;5183822;27;11381;-73
2021/12/31 11:50:28;;;;;;;;;43.00;37.33;;;;;;;;5184128;27;11886;-74
2021/12/31 11:53:01;;;;;;;;;42.33;38.33;;;;;;;;5184645;27;12532;-74
2021/12/31 11:55:26;;;;;;;;;39.33;37.00;;;;;;;;5165176;27;10881;-73
2021/12/31 11:57:52;;;;;;;;;48.00;38.33;;;;;;;;5184189;27;13418;-73
2021/12/31 12:00:25;;;;;;;;;40.00;34.00;;;;;;;;5184407;27;14770;-78
2021/12/31 12:02:50;;;;;;;;;37.67;35.67;;;;;;;;5165389;27;12056;-76
2021/12/31 12:05:16;;;;;;;;;44.00;39.67;;;;;;;;5184389;27;13362;-74
2021/12/31 12:07:42;;;;;;;;;44.67;38.67;;;;;;;;5184392;27;12460;-74
2021/12/31 12:10:12;;;;;;;;;42.33;37.33;;;;;;;;5183936;27;9771;-74
2021/12/31 12:12:38;;;;;;;;;38.67;36.33;;;;;;;;5165096;27;13442;-78
2021/12/31 12:15:21;;;;;;;;;40.00;38.00;;;;;;;;5184026;27;12995;-74
2021/12/31 12:17:47;;;;;;;;;39.67;36.00;;;;;;;;5184218;27;13960;-77
2021/12/31 12:20:18;;;;;;;;;46.00;35.67;;;;;;;;5164095;27;14618;-76
2021/12/31 12:22:50;;;;;;;;;38.33;33.67;;;;;;;;5183978;27;14606;-80
2021/12/31 12:25:17;;;;;;;;;41.67;36.67;;;;;;;;5165486;27;14285;-76
2021/12/31 12:27:43;;;;;;;;;48.00;39.33;;;;;;;;5184057;27;12418;-75
2021/12/31 12:30:09;;;;;;;;;31.00;24.00;;;;;;;;5182867;27;11462;-75
2021/12/31 12:32:39;;;;;;;;;45.00;39.00;;;;;;;;5183173;27;13524;-74
2021/12/31 12:35:21;;;;;;;;;44.67;36.00;;;;;;;;5173737;27;11971;-76
2021/12/31 12:37:55;;;;;;;;;45.00;39.67;;;;;;;;5176354;27;10998;-76
2021/12/31 12:40:33;;;;;;;;;48.33;40.00;;;;;;;;5173727;27;12552;-79
2021/12/31 12:42:59;;;;;;;;;46.00;38.67;;;;;;;;5174472;27;12591;-77
2021/12/31 12:45:24;;;;;;;;;44.00;37.33;;;;;;;;5174032;27;12695;-79
2021/12/31 12:47:51;;;;;;;;;46.67;39.00;;;;;;;;5156030;27;13719;-77
2021/12/31 12:50:16;;;;;;;;;47.00;38.00;;;;;;;;5171292;27;11693;-76
2021/12/31 12:52:51;;;;;;;;;51.00;42.00;;;;;;;;5177294;27;10352;-78
2021/12/31 12:55:17;;;;;;;;;48.00;40.33;;;;;;;;5187048;27;11024;-80
2021/12/31 12:57:50;;;;;;;;;47.33;41.00;;;;;;;;5163451;27;14006;-77
2021/12/31 13:00:15;;;;;;;;;47.67;39.00;;;;;;;;5170251;27;11918;-77
2021/12/31 13:02:42;;;;;;;;;40.00;39.00;;;;;;;;5168002;27;11375;-79
2021/12/31 13:05:09;;;;;;;;;45.00;40.00;;;;;;;;5175053;27;9018;-77
2021/12/31 13:07:34;;;;;;;;;47.33;39.67;;;;;;;;5172605;27;9300;-80
2021/12/31 13:10:07;;;;;;;;;51.33;42.00;;;;;;;;5176114;27;12305;-83
2021/12/31 13:12:33;;;;;;;;;49.33;41.33;;;;;;;;5155382;27;15519;-85
2021/12/31 13:14:58;;;;;;;;;48.00;39.67;;;;;;;;5172457;27;14468;-80
2021/12/31 13:17:26;;;;;;;;;49.00;40.33;;;;;;;;5174996;27;12464;-79
2021/12/31 13:20:01;;;;;;;;;56.67;41.00;;;;;;;;5174455;27;12734;-71
2021/12/31 13:22:32;;;;;;;;;49.00;41.33;;;;;;;;5172507;27;14856;-75
2021/12/31 13:24:57;;;;;;;;;45.67;36.67;;;;;;;;5175800;27;13560;-72
2021/12/31 13:27:22;;;;;;;;;42.67;36.33;;;;;;;;5169624;27;12325;-70
2021/12/31 13:29:49;;;;;;;;;53.67;40.33;;;;;;;;5161390;27;11493;-72
2021/12/31 13:32:17;;;;;;;;;45.00;40.33;;;;;;;;5173042;27;10476;-74
2021/12/31 13:34:45;;;;;;;;;48.33;40.33;;;;;;;;5172841;27;10255;-75
2021/12/31 13:37:27;;;;;;;;;36.00;34.00;;;;;;;;5171540;27;9803;-74
2021/12/31 13:40:11;;;;;;;;;47.00;39.00;;;;;;;;5171104;27;13396;-75
2021/12/31 13:42:37;;;;;;;;;49.00;40.00;;;;;;;;5172227;27;11301;-74
2021/12/31 13:45:03;;;;;;;;;55.33;44.67;;;;;;;;5152195;27;9499;-79
2021/12/31 13:47:28;;;;;;;;;52.33;44.00;;;;;;;;5173164;27;13454;-73
2021/12/31 13:49:55;;;;;;;;;57.67;46.67;;;;;;;;5170925;27;11897;-74
2021/12/31 13:52:28;;;;;;;;;57.67;45.00;;;;;;;;5174004;27;12550;-74
2021/12/31 13:55:00;;;;;;;;;58.33;47.00;;;;;;;;5171268;27;9014;-73
2021/12/31 13:57:26;;;;;;;;;55.00;44.00;;;;;;;;5177446;27;10455;-75
2021/12/31 13:59:53;;;;;;;;;56.33;45.67;;;;;;;;5169741;27;10460;-77
2021/12/31 14:02:21;;;;;;;;;69.33;54.00;;;;;;;;5168755;27;11542;-75
2021/12/31 14:04:58;;;;;;;;;60.00;48.67;;;;;;;;5176237;27;14815;-75
2021/12/31 14:08:03;;;;;;;;;62.67;50.00;;;;;;;;5173935;27;12317;-78
2021/12/31 14:10:24;;;;;;;;;69.00;54.33;;;;;;;;5170576;27;12798;-76
2021/12/31 14:12:49;;;;;;;;;70.00;55.00;;;;;;;;5169064;27;11576;-73
2021/12/31 14:15:15;;;;;;;;;67.00;55.00;;;;;;;;5170487;27;13296;-73
2021/12/31 14:17:41;;;;;;;;;69.33;55.00;;;;;;;;5173835;27;9616;-74
2021/12/31 14:20:07;;;;;;;;;71.00;57.33;;;;;;;;5168873;27;9051;-73
2021/12/31 14:22:33;;;;;;;;;61.00;50.00;;;;;;;;5172851;27;14024;-74
2021/12/31 14:24:58;;;;;;;;;70.00;56.00;;;;;;;;5169518;27;13548;-74
2021/12/31 14:27:24;;;;;;;;;57.33;46.33;;;;;;;;5147402;27;10809;-73
2021/12/31 14:29:49;;;;;;;;;66.00;53.00;;;;;;;;5163765;27;13297;-73
2021/12/31 14:32:14;;;;;;;;;64.67;52.67;;;;;;;;5178710;27;13350;-73
2021/12/31 14:34:40;;;;;;;;;65.33;50.00;;;;;;;;5164739;27;11547;-72
2021/12/31 14:37:09;;;;;;;;;56.00;44.00;;;;;;;;5161036;27;11605;-73
2021/12/31 14:39:36;;;;;;;;;62.67;50.33;;;;;;;;5160313;27;12298;-74
2021/12/31 14:42:01;;;;;;;;;62.00;52.00;;;;;;;;5161671;27;13461;-75
2021/12/31 14:44:27;;;;;;;;;60.67;49.33;;;;;;;;5173051;27;10656;-77
2021/12/31 14:46:53;;;;;;;;;65.00;48.00;;;;;;;;5169953;27;12187;-76
2021/12/31 20:18:05;;;;;;;;;68.67;55.00;;;;;;;;5132531;27;2245760;-74
2021/12/31 20:20:30;;;;;;;;;69.00;52.67;;;;;;;;5199651;27;22611;-78
2021/12/31 20:22:55;;;;;;;;;59.33;51.33;;;;;;;;5194692;27;11667;-80
2021/12/31 20:25:21;;;;;;;;;67.33;52.00;;;;;;;;5187751;27;13400;-80
2021/12/31 20:27:51;;;;;;;;;70.67;54.67;;;;;;;;5185699;27;14044;-80
2021/12/31 20:30:17;;;;;;;;;64.33;49.33;;;;;;;;5185416;27;13310;-81
2021/12/31 20:32:45;;;;;;;;;62.00;52.00;;;;;;;;5192399;27;13428;-81
2021/12/31 20:35:13;;;;;;;;;66.00;52.00;;;;;;;;5186847;27;13974;-76
2021/12/31 20:37:39;;;;;;;;;67.33;52.00;;;;;;;;5187551;27;9600;-74
2021/12/31 20:40:05;;;;;;;;;63.33;49.33;;;;;;;;5183299;27;8902;-75
2021/12/31 20:42:31;;;;;;;;;62.33;53.33;;;;;;;;5187098;27;12350;-76
2021/12/31 20:44:56;;;;;;;;;63.67;49.00;;;;;;;;5188121;27;10052;-76
2021/12/31 20:47:21;;;;;;;;;82.00;58.33;;;;;;;;5166418;27;14438;-78
2021/12/31 20:49:48;;;;;;;;;65.00;54.00;;;;;;;;5165805;27;15354;-77
2021/12/31 20:52:13;;;;;;;;;73.33;55.00;;;;;;;;5188055;27;13476;-82
2021/12/31 20:54:39;;;;;;;;;68.00;56.00;;;;;;;;5199001;27;12192;-81
2021/12/31 20:57:05;;;;;;;;;76.75;60.75;;;;;;;;5186762;27;14295;-82
2021/12/31 20:59:31;;;;;;;;;78.25;61.25;;;;;;;;5190089;27;13787;-82
2021/12/31 21:01:56;;;;;;;;;78.00;61.50;;;;;;;;5186066;27;10330;-79
2021/12/31 21:04:22;;;;;;;;;76.50;61.50;;;;;;;;5187947;27;9057;-78
2021/12/31 21:06:47;;;;;;;;;77.00;61.00;;;;;;;;5185087;27;9445;-79
2021/12/31 21:09:13;;;;;;;;;78.00;60.75;;;;;;;;5188350;27;12750;-78
2021/12/31 21:11:39;;;;;;;;;78.50;60.25;;;;;;;;5185131;27;11383;-78
2021/12/31 21:14:04;;;;;;;;;82.75;64.25;;;;;;;;5185932;27;8814;-77
2021/12/31 21:16:30;;;;;;;;;86.25;65.50;;;;;;;;5187382;27;12410;-77
2021/12/31 21:18:55;;;;;;;;;85.50;66.00;;;;;;;;5188429;27;11371;-79
2021/12/31 21:21:21;;;;;;;;;85.50;65.75;;;;;;;;5168133;27;13426;-77